createdAt,value
2023-04-25T04:22:26.065Z,99450.72
2023-04-25T04:32:15.603Z,99462.28
2023-04-25T04:35:18.565Z,99470.50
2023-04-25T04:38:22.766Z,99471.28
2023-04-25T04:41:25.466Z,99468.28
2023-04-25T04:44:27.995Z,99467.91
2023-04-25T04:47:32.233Z,99469.91
2023-04-25T05:06:59.828Z,99474.59
2023-04-25T05:10:02.478Z,99467.44
2023-04-25T05:13:05.088Z,99474.22
2023-04-25T05:16:08.145Z,99470.81
2023-04-25T05:19:10.655Z,99471.59
2023-04-25T05:22:14.474Z,99477.50
2023-04-25T05:25:16.945Z,99477.44
2023-04-25T05:28:19.439Z,99477.34
2023-04-25T05:39:31.749Z,99475.56
2023-04-25T05:50:05.663Z,99490.38
2023-04-25T05:53:08.163Z,99492.31
2023-04-25T05:56:10.669Z,99492.06
2023-04-25T05:59:13.165Z,99497.34
2023-04-25T06:02:15.859Z,99493.00
2023-04-25T06:05:19.922Z,99502.66
2023-04-25T06:08:22.443Z,99512.44
2023-04-25T06:11:24.938Z,99511.56
2023-04-25T06:14:29.460Z,99513.19
2023-04-25T06:17:32.201Z,99519.19
2023-04-25T06:27:07.465Z,99521.53
2023-04-25T06:30:12.454Z,99517.28
2023-04-25T06:40:29.043Z,99526.28
2023-04-25T06:50:23.397Z,99521.84
2023-04-25T07:00:17.135Z,99512.88
2023-04-25T07:03:19.777Z,99512.50
2023-04-25T07:06:22.446Z,99508.63
2023-04-25T07:09:24.987Z,99503.78
2023-04-25T07:12:27.458Z,99509.63
2023-04-25T07:15:31.479Z,99504.69
2023-04-25T07:18:33.946Z,99512.69
2023-04-25T07:21:37.392Z,99511.75
2023-04-25T07:24:39.885Z,99520.41
2023-04-25T07:27:42.381Z,99529.13
2023-04-25T07:30:46.236Z,99531.75
2023-04-25T07:33:48.718Z,99529.72
2023-04-25T07:36:51.569Z,99538.31
2023-04-25T07:39:54.106Z,99544.44
2023-04-25T07:42:56.742Z,99550.34
2023-04-25T08:01:49.466Z,99608.47
2023-04-25T08:04:52.032Z,99608.81
2023-04-25T08:07:54.660Z,99615.94
2023-04-25T08:10:57.549Z,99623.00
2023-04-25T08:14:00.047Z,99620.28
2023-04-25T08:17:04.493Z,99631.31
2023-04-25T08:20:08.270Z,99629.00
2023-04-25T08:23:11.771Z,99632.41
2023-04-25T08:26:14.386Z,99626.59
2023-04-25T08:29:17.494Z,99630.56
2023-04-25T08:32:22.196Z,99637.78
2023-04-25T08:35:24.766Z,99640.81
2023-04-25T08:38:27.278Z,99646.22
2023-04-25T08:41:30.106Z,99653.03
2023-04-25T08:44:32.793Z,99654.31
2023-04-25T08:47:39.787Z,99657.84
2023-04-25T08:50:51.791Z,99667.59
2023-04-25T08:53:57.824Z,99657.84
2023-04-25T08:57:05.118Z,99665.09
2023-04-25T09:00:09.937Z,99663.78
2023-04-25T09:03:14.166Z,99655.03
2023-04-25T09:06:18.190Z,99658.84
2023-04-25T09:09:20.723Z,99664.84
2023-04-25T09:12:23.489Z,99664.75
2023-04-25T09:15:26.392Z,99665.81
2023-04-25T09:18:31.602Z,99670.75
2023-04-25T09:21:36.490Z,99676.41
2023-04-25T09:24:41.668Z,99677.66
2023-04-25T09:27:54.057Z,99674.06
2023-04-25T09:30:58.381Z,99675.34
2023-04-25T09:34:03.334Z,99674.72
2023-04-25T09:37:06.096Z,99681.06
2023-04-25T09:40:11.050Z,99681.38
2023-04-25T09:43:21.480Z,99683.00
2023-04-25T09:46:26.386Z,99685.59
2023-04-25T09:49:30.338Z,99699.72
2023-04-25T09:52:32.802Z,99701.75
2023-04-25T09:55:36.656Z,99700.13
2023-04-25T09:58:40.689Z,99704.66
2023-04-25T10:01:45.327Z,99714.00
2023-04-25T10:04:52.744Z,99715.00
2023-04-25T10:07:55.724Z,99707.59
2023-04-25T10:10:58.832Z,99712.94
2023-04-25T10:14:02.478Z,99720.66
2023-04-25T10:17:05.166Z,99720.00
2023-04-25T10:20:11.823Z,99718.94
2023-04-25T10:23:15.980Z,99729.78
2023-04-25T10:26:19.237Z,99726.47
2023-04-25T10:29:26.004Z,99734.53
2023-04-25T10:32:30.731Z,99731.13
2023-04-25T10:35:36.230Z,99725.50
2023-04-25T10:38:39.568Z,99731.94
2023-04-25T10:41:49.953Z,99736.16
2023-04-25T10:45:04.808Z,99737.03
2023-04-25T10:48:27.218Z,99741.84
2023-04-25T10:51:43.424Z,99751.06
2023-04-25T10:54:56.740Z,99748.63
2023-04-25T11:01:06.860Z,99762.41
2023-04-25T11:04:22.809Z,99745.22
2023-04-25T11:07:35.963Z,99758.41
2023-04-25T11:10:38.493Z,99772.06
2023-04-25T11:13:41.109Z,99771.91
2023-04-25T11:16:43.661Z,99785.50
2023-04-25T11:19:50.013Z,99793.16
2023-04-25T11:22:53.986Z,99801.25
2023-04-25T11:25:56.538Z,99805.69
2023-04-25T11:29:00.118Z,99805.38
2023-04-25T11:32:03.486Z,99806.22
2023-04-25T11:35:08.306Z,99813.28
2023-04-25T11:38:12.603Z,99812.34
2023-04-25T11:41:15.149Z,99809.31
2023-04-25T11:44:18.541Z,99808.03
2023-04-25T11:47:21.264Z,99805.47
2023-04-25T11:50:23.919Z,99811.78
2023-04-25T11:53:29.344Z,99802.69
2023-04-25T11:56:32.183Z,99819.94
2023-04-25T11:59:34.957Z,99814.72
2023-04-25T12:02:37.902Z,99817.63
2023-04-25T12:05:41.311Z,99818.94
2023-04-25T12:09:06.710Z,99829.13
2023-04-25T12:12:11.962Z,99818.91
2023-04-25T12:15:18.357Z,99823.88
2023-04-25T12:18:21.865Z,99831.50
2023-04-25T12:21:24.390Z,99831.03
2023-04-25T12:24:29.163Z,99827.69
2023-04-25T12:27:33.259Z,99832.75
2023-04-25T12:30:54.527Z,99841.56
2023-04-25T12:33:58.496Z,99847.59
2023-04-25T12:37:01.088Z,99847.38
2023-04-25T12:40:05.979Z,99855.13
2023-04-25T12:43:08.447Z,99853.00
2023-04-25T12:46:10.985Z,99841.34
2023-04-25T12:49:18.802Z,99846.34
2023-04-25T12:52:21.754Z,99846.19
2023-04-25T12:55:25.897Z,99842.13
2023-04-25T12:58:28.373Z,99840.19
2023-04-25T13:01:31.896Z,99843.88
2023-04-25T13:04:35.725Z,99839.72
2023-04-25T13:07:38.261Z,99838.91
2023-04-25T13:10:42.912Z,99854.66
2023-04-25T13:13:46.360Z,99852.19
2023-04-25T13:16:49.109Z,99848.13
2023-04-25T13:19:51.718Z,99855.53
2023-04-25T13:22:54.186Z,99855.97
2023-04-25T13:25:59.374Z,99850.41
2023-04-25T13:29:04.556Z,99847.31
2023-04-25T13:32:07.110Z,99843.38
2023-04-25T13:35:12.820Z,99853.03
2023-04-25T13:38:15.361Z,99853.91
2023-04-25T13:41:19.908Z,99848.53
2023-04-25T13:44:22.531Z,99856.28
2023-04-25T13:47:25.406Z,99861.53
2023-04-25T13:50:28.006Z,99850.22
2023-04-25T13:53:30.619Z,99847.53
2023-04-25T13:56:34.508Z,99856.34
2023-04-25T13:59:37.032Z,99855.38
2023-04-25T14:02:40.207Z,99856.88
2023-04-25T14:05:42.816Z,99868.28
2023-04-25T14:08:45.292Z,99862.59
2023-04-25T14:11:49.153Z,99864.53
2023-04-25T14:14:51.647Z,99863.66
2023-04-25T14:17:54.265Z,99867.38
2023-04-25T14:20:56.858Z,99865.13
2023-04-25T14:23:59.316Z,99862.41
2023-04-25T14:27:03.552Z,99865.91
2023-04-25T14:30:07.919Z,99867.66
2023-04-25T14:33:10.446Z,99873.72
2023-04-25T14:36:13.048Z,99863.97
2023-04-25T14:39:15.982Z,99862.41
2023-04-25T14:42:19.834Z,99870.41
2023-04-25T14:45:22.352Z,99862.63
2023-04-25T14:48:25.078Z,99871.31
2023-04-25T14:51:27.730Z,99867.50
2023-04-25T14:54:30.225Z,99868.91
2023-04-25T14:57:34.255Z,99873.81
2023-04-25T15:00:38.566Z,99885.81
2023-04-25T15:03:42.127Z,99877.75
2023-04-25T15:06:45.073Z,99884.59
2023-04-25T15:09:49.799Z,99883.38
2023-04-25T15:12:54.433Z,99890.81
2023-04-25T15:15:56.924Z,99892.84
2023-04-25T15:18:59.405Z,99904.72
2023-04-25T15:22:02.405Z,99909.22
2023-04-25T15:25:05.527Z,99916.84
2023-04-25T15:28:09.606Z,99928.91
2023-04-25T15:31:12.102Z,99919.81
2023-04-25T15:34:14.567Z,99928.94
2023-04-25T15:37:17.074Z,99918.41
2023-04-25T15:40:19.630Z,99911.19
2023-04-25T15:43:23.476Z,99923.09
2023-04-25T15:46:26.167Z,99917.91
2023-04-25T15:49:28.710Z,99929.97
2023-04-25T15:52:31.431Z,99924.31
2023-04-25T15:55:33.966Z,99920.97
2023-04-25T15:58:38.026Z,99931.19
2023-04-25T16:01:40.932Z,99922.38
2023-04-25T16:04:43.805Z,99919.94
2023-04-25T16:07:47.706Z,99926.88
2023-04-25T16:10:50.295Z,99922.81
2023-04-25T16:13:54.182Z,99922.81
2023-04-25T16:16:56.837Z,99920.94
2023-04-25T16:19:59.419Z,99930.22
2023-04-25T16:23:01.923Z,99928.34
2023-04-25T16:26:04.478Z,99926.97
2023-04-25T16:29:08.852Z,99929.53
2023-04-25T16:32:13.328Z,99931.72
2023-04-25T16:35:15.841Z,99929.31
2023-04-25T16:38:18.318Z,99923.25
2023-04-25T16:41:20.959Z,99925.38
2023-04-25T16:44:24.788Z,99933.28
2023-04-25T16:47:27.388Z,99934.38
2023-04-25T16:50:29.924Z,99928.22
2023-04-25T16:53:33.285Z,99933.50
2023-04-25T16:56:35.810Z,99939.38
2023-04-25T16:59:39.954Z,99943.97
2023-04-25T17:02:42.551Z,99942.44
2023-04-25T17:05:45.415Z,99944.94
2023-04-25T17:08:47.868Z,99952.13
2023-04-25T17:11:50.758Z,99949.78
2023-04-25T17:14:54.832Z,99952.06
2023-04-25T17:17:57.405Z,99953.81
2023-04-25T17:21:00.015Z,99953.44
2023-04-25T17:24:06.009Z,99956.91
2023-04-25T17:27:08.581Z,99950.84
2023-04-25T17:30:13.548Z,99954.81
2023-04-25T17:33:16.062Z,99965.97
2023-04-25T17:36:19.417Z,99955.13
2023-04-25T17:39:22.039Z,99965.41
2023-04-25T17:42:24.647Z,99968.63
2023-04-25T17:45:34.437Z,99962.63
2023-04-25T17:48:36.945Z,99965.66
2023-04-25T17:51:39.484Z,99973.34
2023-04-25T17:54:42.184Z,99973.50
2023-04-25T17:57:44.662Z,99971.13
2023-04-25T18:00:49.223Z,99961.13
2023-04-25T18:03:52.593Z,99967.13
2023-04-25T18:06:55.576Z,99967.03
2023-04-25T18:09:58.050Z,99976.13
2023-04-25T18:13:00.618Z,99972.63
2023-04-25T18:16:04.812Z,99982.13
2023-04-25T18:19:11.602Z,99976.00
2023-04-25T18:22:14.121Z,99989.06
2023-04-25T18:25:17.060Z,99988.56
2023-04-25T18:28:19.814Z,99986.91
2023-04-25T18:31:25.259Z,99997.69
2023-04-25T18:34:27.885Z,100000.53
2023-04-25T18:37:30.509Z,100002.22
2023-04-25T18:40:33.041Z,100011.44
2023-04-25T18:43:35.640Z,100010.16
2023-04-25T18:46:41.323Z,100012.50
2023-04-25T18:49:43.881Z,100021.41
2023-04-25T18:52:46.352Z,100019.47
2023-04-25T18:55:48.865Z,100024.72
2023-04-25T18:58:52.071Z,100022.56
2023-04-25T19:01:56.180Z,100023.06
2023-04-25T19:04:59.041Z,100024.50
2023-04-25T19:08:01.690Z,100032.06
2023-04-25T19:11:18.096Z,100035.00
2023-04-25T19:14:23.256Z,100034.91
2023-04-25T19:17:29.055Z,100039.69
2023-04-25T19:20:33.943Z,100041.78
2023-04-25T19:23:36.976Z,100047.22
2023-04-25T19:26:39.451Z,100050.94
2023-04-25T19:29:46.031Z,100052.06
2023-04-25T19:32:50.100Z,100048.44
2023-04-25T19:35:52.729Z,100055.53
2023-04-25T19:39:00.881Z,100057.97
2023-04-25T19:42:04.214Z,100050.06
2023-04-25T19:45:07.835Z,100056.84
2023-04-25T19:48:13.972Z,100061.72
2023-04-25T20:25:07.137Z,100086.09
2023-04-25T20:55:10.956Z,100094.03
